Inuvik Mike Zubko Airport
CYEV : rendu visible

Aérodrome :











RETROUVEZ-NOUS SUR...

 
LOGIN :

S'inscrire | Disclaimer

   EN    FR    IT 

 









Légende :    VFR   VFR Marginal   IFR   IFR Intensif   IFR Très Intensif
Visi : 
Plafond : 
>= 8 km
>= 3000ft
5 à 8 km
1000 à 3000 ft
1500m à 5 km
500 à 1000 ft
800 à 1500m
200 à 500 ft
< 800m
< 200 ft
Symboles :   Orages  Brouillard  Fortes neiges  Fortes précipitations  Vent > 20 kt






- Altitude de l'aérodrome : 224 ft
- Code IATA : YEV


CYEV - Inuvik Mike Zubko

DERNIER METAR :
  • 250200Z 11015KT 15SM FEW250 13/M01 A2970 RMK CI1 CONTRAILS SLP063 DENSITY ALT 300FT

METARs EXPIRÉS :
  • 250100Z 10014KT 15SM FEW250 13/M01 A2971 RMK CI1 SLP067 DENSITY ALT 300FT
  • 250000Z 09013G19KT 15SM FEW250 14/M00 A2973 RMK CI1 SLP073 DENSITY ALT 400FT

TAF TAF CYEV
Valide du 25 à 01h jusqu'au 25 à 13h UTC


250038Z 2501/2513 09012KT P6SM FEW240
BECMG 2505/2507 09008KT RMK NXT FCST BY 250700Z
FIR CZEG / Amérique du Nord



MET'MAP, la Météo Aéronautique d'un coup d'oeil ! - Copyright ORBIFLY Décembre 2007 - Disclaimer

ORBIFLY MET'MAP TEAM :

Programmation & Développement : Alexandra Zaïnal
Sur une idée originale de : Baudouin d'Aumeries
Assistance à la programmation : Marc-Olivier Méhu
Soutien technique & logistique : Manuel Goepfert

Contact : metmap@orbifly.com




SOURCES & CREDITS :

   NOAA       Earth
Advisory